sensor_id;sensor_type;location;lat;lon;timestamp;pressure;altitude;pressure_sealevel;temperature;humidity
14882;BME280;7533;51.278;12.588;2024-01-15T00:03:39;98242.03;;;25.84;45.04
14882;BME280;7533;51.278;12.588;2024-01-15T00:08:44;98236.19;;;25.73;44.98
14882;BME280;7533;51.278;12.588;2024-01-15T00:13:48;98234.75;;;25.62;45.42
14882;BME280;7533;51.278;12.588;2024-01-15T00:18:51;98222.88;;;25.48;45.51
14882;BME280;7533;51.278;12.588;2024-01-15T00:23:54;98221.44;;;25.38;45.45
14882;BME280;7533;51.278;12.588;2024-01-15T00:28:58;98219.16;;;25.26;45.79
14882;BME280;7533;51.278;12.588;2024-01-15T00:34:01;98210.22;;;25.18;45.75
14882;BME280;7533;51.278;12.588;2024-01-15T00:39:04;98211.50;;;25.07;45.92
14882;BME280;7533;51.278;12.588;2024-01-15T00:44:09;98204.91;;;25.01;46.09
14882;BME280;7533;51.278;12.588;2024-01-15T00:49:12;98191.44;;;24.93;46.15
14882;BME280;7533;51.278;12.588;2024-01-15T00:54:15;98169.22;;;25.06;46.15
14882;BME280;7533;51.278;12.588;2024-01-15T00:59:20;98170.34;;;25.12;46.03
14882;BME280;7533;51.278;12.588;2024-01-15T01:04:23;98187.41;;;24.89;46.34
14882;BME280;7533;51.278;12.588;2024-01-15T01:09:26;98178.38;;;24.74;46.53
14882;BME280;7533;51.278;12.588;2024-01-15T01:14:33;98187.25;;;24.60;46.83
14882;BME280;7533;51.278;12.588;2024-01-15T01:19:36;98177.50;;;24.50;46.97
14882;BME280;7533;51.278;12.588;2024-01-15T01:24:39;98183.97;;;24.41;46.98
14882;BME280;7533;51.278;12.588;2024-01-15T01:29:43;98169.41;;;24.34;47.18
14882;BME280;7533;51.278;12.588;2024-01-15T01:34:46;98177.59;;;24.26;47.29
14882;BME280;7533;51.278;12.588;2024-01-15T01:39:49;98156.81;;;24.18;47.14
14882;BME280;7533;51.278;12.588;2024-01-15T01:44:53;98152.66;;;24.08;47.22
14882;BME280;7533;51.278;12.588;2024-01-15T01:49:56;98153.50;;;24.00;47.10
14882;BME280;7533;51.278;12.588;2024-01-15T01:55:00;98158.59;;;23.95;47.12
14882;BME280;7533;51.278;12.588;2024-01-15T02:00:08;98162.69;;;23.91;47.34
14882;BME280;7533;51.278;12.588;2024-01-15T02:05:18;98152.53;;;23.85;47.33
14882;BME280;7533;51.278;12.588;2024-01-15T02:10:21;98143.91;;;23.97;47.17
14882;BME280;7533;51.278;12.588;2024-01-15T02:15:25;98139.22;;;23.83;47.39
14882;BME280;7533;51.278;12.588;2024-01-15T02:20:29;98133.16;;;23.73;47.46
14882;BME280;7533;51.278;12.588;2024-01-15T02:25:33;98133.03;;;23.66;47.63
14882;BME280;7533;51.278;12.588;2024-01-15T02:30:38;98126.59;;;23.59;47.65
14882;BME280;7533;51.278;12.588;2024-01-15T02:35:41;98125.63;;;23.52;47.69
14882;BME280;7533;51.278;12.588;2024-01-15T02:40:47;98140.47;;;23.48;47.90
14882;BME280;7533;51.278;12.588;2024-01-15T02:45:50;98133.06;;;23.42;47.92
14882;BME280;7533;51.278;12.588;2024-01-15T02:50:53;98139.97;;;23.36;48.09
14882;BME280;7533;51.278;12.588;2024-01-15T02:55:57;98151.28;;;23.32;48.21
14882;BME280;7533;51.278;12.588;2024-01-15T03:01:00;98153.63;;;23.27;48.28
14882;BME280;7533;51.278;12.588;2024-01-15T03:06:04;98147.72;;;23.23;48.36
14882;BME280;7533;51.278;12.588;2024-01-15T03:11:08;98141.00;;;23.19;48.43
14882;BME280;7533;51.278;12.588;2024-01-15T03:16:11;98141.31;;;23.16;48.42
14882;BME280;7533;51.278;12.588;2024-01-15T03:21:14;98128.19;;;23.13;48.38
14882;BME280;7533;51.278;12.588;2024-01-15T03:26:18;98123.97;;;23.10;48.54
14882;BME280;7533;51.278;12.588;2024-01-15T03:31:21;98130.56;;;23.08;48.28
14882;BME280;7533;51.278;12.588;2024-01-15T03:36:24;98141.00;;;23.03;48.39
14882;BME280;7533;51.278;12.588;2024-01-15T03:41:28;98146.91;;;22.98;48.40
14882;BME280;7533;51.278;12.588;2024-01-15T03:46:31;98149.06;;;22.94;48.38
14882;BME280;7533;51.278;12.588;2024-01-15T03:51:34;98145.91;;;22.91;48.41
14882;BME280;7533;51.278;12.588;2024-01-15T03:56:38;98149.91;;;22.87;48.49
14882;BME280;7533;51.278;12.588;2024-01-15T04:01:48;98155.78;;;22.82;48.63
14882;BME280;7533;51.278;12.588;2024-01-15T04:06:50;98151.59;;;22.80;48.61
14882;BME280;7533;51.278;12.588;2024-01-15T04:11:55;98162.50;;;22.78;48.77
14882;BME280;7533;51.278;12.588;2024-01-15T04:16:58;98161.84;;;22.76;48.59
14882;BME280;7533;51.278;12.588;2024-01-15T04:22:01;98151.22;;;22.75;49.04
14882;BME280;7533;51.278;12.588;2024-01-15T04:27:05;98153.09;;;22.74;49.12
14882;BME280;7533;51.278;12.588;2024-01-15T04:32:08;98150.72;;;22.71;49.16
14882;BME280;7533;51.278;12.588;2024-01-15T04:37:13;98157.59;;;22.65;49.80
14882;BME280;7533;51.278;12.588;2024-01-15T04:42:17;98154.41;;;22.62;49.71
14882;BME280;7533;51.278;12.588;2024-01-15T04:47:20;98144.63;;;22.61;49.68
14882;BME280;7533;51.278;12.588;2024-01-15T04:52:23;98145.81;;;22.58;49.32
14882;BME280;7533;51.278;12.588;2024-01-15T04:57:27;98156.91;;;22.55;49.22
14882;BME280;7533;51.278;12.588;2024-01-15T05:02:30;98166.19;;;22.53;49.21
14882;BME280;7533;51.278;12.588;2024-01-15T05:07:33;98163.81;;;22.50;49.26
14882;BME280;7533;51.278;12.588;2024-01-15T05:12:37;98146.13;;;22.47;49.25
14882;BME280;7533;51.278;12.588;2024-01-15T05:17:40;98146.44;;;22.44;49.28
14882;BME280;7533;51.278;12.588;2024-01-15T05:22:43;98139.38;;;22.43;49.08
14882;BME280;7533;51.278;12.588;2024-01-15T05:27:47;98137.00;;;22.40;49.06
14882;BME280;7533;51.278;12.588;2024-01-15T05:32:50;98134.47;;;22.38;49.12
14882;BME280;7533;51.278;12.588;2024-01-15T05:37:53;98121.50;;;22.34;49.12
14882;BME280;7533;51.278;12.588;2024-01-15T05:42:57;98110.88;;;22.32;49.09
14882;BME280;7533;51.278;12.588;2024-01-15T05:48:00;98130.06;;;22.29;49.11
14882;BME280;7533;51.278;12.588;2024-01-15T05:53:04;98126.69;;;22.27;49.06
14882;BME280;7533;51.278;12.588;2024-01-15T05:58:08;98128.72;;;22.25;49.09
14882;BME280;7533;51.278;12.588;2024-01-15T06:03:11;98127.88;;;22.25;49.02
14882;BME280;7533;51.278;12.588;2024-01-15T06:08:14;98124.34;;;22.24;49.13
14882;BME280;7533;51.278;12.588;2024-01-15T06:13:18;98119.13;;;22.23;48.97
14882;BME280;7533;51.278;12.588;2024-01-15T06:18:21;98112.19;;;22.20;49.02
14882;BME280;7533;51.278;12.588;2024-01-15T06:23:24;98104.28;;;22.18;49.22
14882;BME280;7533;51.278;12.588;2024-01-15T06:28:28;98119.06;;;22.14;49.14
14882;BME280;7533;51.278;12.588;2024-01-15T06:33:31;98122.78;;;22.13;49.11
14882;BME280;7533;51.278;12.588;2024-01-15T06:38:34;98130.19;;;22.11;49.03
14882;BME280;7533;51.278;12.588;2024-01-15T06:43:38;98126.75;;;22.09;49.01
14882;BME280;7533;51.278;12.588;2024-01-15T06:48:42;98126.94;;;22.08;49.28
14882;BME280;7533;51.278;12.588;2024-01-15T06:53:44;98137.88;;;22.06;49.29
14882;BME280;7533;51.278;12.588;2024-01-15T06:58:49;98131.66;;;22.06;49.43
14882;BME280;7533;51.278;12.588;2024-01-15T07:03:52;98133.47;;;22.05;49.32
14882;BME280;7533;51.278;12.588;2024-01-15T07:08:55;98131.97;;;22.03;49.21
14882;BME280;7533;51.278;12.588;2024-01-15T07:13:59;98139.38;;;22.01;49.31
14882;BME280;7533;51.278;12.588;2024-01-15T07:19:02;98134.97;;;22.00;49.29
14882;BME280;7533;51.278;12.588;2024-01-15T07:24:05;98132.44;;;21.98;49.12
14882;BME280;7533;51.278;12.588;2024-01-15T07:29:10;98145.22;;;21.96;49.16
14882;BME280;7533;51.278;12.588;2024-01-15T07:34:12;98143.56;;;21.95;49.28
14882;BME280;7533;51.278;12.588;2024-01-15T07:39:16;98157.16;;;21.93;49.44
14882;BME280;7533;51.278;12.588;2024-01-15T07:44:21;98151.28;;;21.90;49.36
14882;BME280;7533;51.278;12.588;2024-01-15T07:49:24;98148.56;;;21.90;49.15
14882;BME280;7533;51.278;12.588;2024-01-15T07:54:27;98135.41;;;21.87;48.86
14882;BME280;7533;51.278;12.588;2024-01-15T07:59:31;98143.66;;;21.85;48.52
14882;BME280;7533;51.278;12.588;2024-01-15T08:04:36;98150.81;;;21.69;47.14
14882;BME280;7533;51.278;12.588;2024-01-15T08:09:39;98163.22;;;20.37;39.65
14882;BME280;7533;51.278;12.588;2024-01-15T08:14:44;98145.44;;;20.08;38.87
14882;BME280;7533;51.278;12.588;2024-01-15T08:19:47;98160.06;;;21.04;41.01
14882;BME280;7533;51.278;12.588;2024-01-15T08:24:50;98145.44;;;21.43;41.42
14882;BME280;7533;51.278;12.588;2024-01-15T08:29:55;98144.22;;;21.63;41.63
14882;BME280;7533;51.278;12.588;2024-01-15T08:34:57;98151.69;;;21.77;42.29
14882;BME280;7533;51.278;12.588;2024-01-15T08:40:00;98152.41;;;21.87;42.66
14882;BME280;7533;51.278;12.588;2024-01-15T08:45:06;98139.69;;;21.98;43.01
14882;BME280;7533;51.278;12.588;2024-01-15T08:50:09;98153.34;;;22.04;43.71
14882;BME280;7533;51.278;12.588;2024-01-15T08:55:12;98160.81;;;22.10;43.94
14882;BME280;7533;51.278;12.588;2024-01-15T09:00:17;98151.09;;;22.17;44.56
14882;BME280;7533;51.278;12.588;2024-01-15T09:05:20;98160.03;;;22.26;44.98
14882;BME280;7533;51.278;12.588;2024-01-15T09:10:23;98157.88;;;22.30;45.13
14882;BME280;7533;51.278;12.588;2024-01-15T09:15:27;98155.34;;;22.36;45.35
14882;BME280;7533;51.278;12.588;2024-01-15T09:20:31;98163.63;;;22.43;45.58
14882;BME280;7533;51.278;12.588;2024-01-15T09:25:34;98140.91;;;22.46;45.66
14882;BME280;7533;51.278;12.588;2024-01-15T09:30:38;98151.81;;;22.44;45.99
14882;BME280;7533;51.278;12.588;2024-01-15T09:35:41;98159.78;;;22.46;46.24
14882;BME280;7533;51.278;12.588;2024-01-15T09:40:45;98156.56;;;22.50;46.28
14882;BME280;7533;51.278;12.588;2024-01-15T09:45:51;98160.44;;;22.56;46.53
14882;BME280;7533;51.278;12.588;2024-01-15T09:50:56;98152.38;;;22.64;46.78
14882;BME280;7533;51.278;12.588;2024-01-15T09:56:00;98149.53;;;22.65;46.67
14882;BME280;7533;51.278;12.588;2024-01-15T10:01:05;98136.56;;;22.69;46.54
14882;BME280;7533;51.278;12.588;2024-01-15T10:06:11;98150.53;;;22.73;46.25
14882;BME280;7533;51.278;12.588;2024-01-15T10:11:18;98150.22;;;22.76;46.29
14882;BME280;7533;51.278;12.588;2024-01-15T10:16:22;98139.44;;;22.76;46.26
14882;BME280;7533;51.278;12.588;2024-01-15T10:21:25;98125.94;;;22.76;46.23
14882;BME280;7533;51.278;12.588;2024-01-15T10:26:29;98133.88;;;22.77;46.46
14882;BME280;7533;51.278;12.588;2024-01-15T10:31:34;98139.28;;;22.85;46.29
14882;BME280;7533;51.278;12.588;2024-01-15T10:36:39;98135.75;;;22.93;46.21
14882;BME280;7533;51.278;12.588;2024-01-15T10:41:42;98129.34;;;22.94;46.07
14882;BME280;7533;51.278;12.588;2024-01-15T10:46:47;98136.09;;;22.98;46.33
14882;BME280;7533;51.278;12.588;2024-01-15T10:51:50;98126.69;;;23.02;46.60
14882;BME280;7533;51.278;12.588;2024-01-15T10:56:56;98121.63;;;23.07;46.76
14882;BME280;7533;51.278;12.588;2024-01-15T11:02:00;98131.03;;;23.11;47.00
14882;BME280;7533;51.278;12.588;2024-01-15T11:07:03;98121.25;;;23.10;47.17
14882;BME280;7533;51.278;12.588;2024-01-15T11:12:10;98127.69;;;23.09;47.49
14882;BME280;7533;51.278;12.588;2024-01-15T11:17:16;98114.69;;;23.13;47.69
14882;BME280;7533;51.278;12.588;2024-01-15T11:22:48;98112.50;;;23.16;47.63
14882;BME280;7533;51.278;12.588;2024-01-15T11:27:52;98112.16;;;23.19;47.62
14882;BME280;7533;51.278;12.588;2024-01-15T11:32:58;98120.75;;;23.15;47.40
14882;BME280;7533;51.278;12.588;2024-01-15T11:38:01;98119.56;;;23.17;47.46
14882;BME280;7533;51.278;12.588;2024-01-15T11:43:04;98124.31;;;23.15;47.44
14882;BME280;7533;51.278;12.588;2024-01-15T11:48:15;98121.41;;;23.17;47.43
14882;BME280;7533;51.278;12.588;2024-01-15T11:53:27;98115.19;;;23.16;47.45
14882;BME280;7533;51.278;12.588;2024-01-15T11:58:31;98114.34;;;23.24;47.52
14882;BME280;7533;51.278;12.588;2024-01-15T12:03:36;98117.72;;;23.26;47.69
14882;BME280;7533;51.278;12.588;2024-01-15T12:08:39;98110.63;;;23.33;47.98
14882;BME280;7533;51.278;12.588;2024-01-15T12:13:42;98107.22;;;23.39;47.96
14882;BME280;7533;51.278;12.588;2024-01-15T12:18:47;98104.38;;;23.41;47.88
14882;BME280;7533;51.278;12.588;2024-01-15T12:23:50;98105.22;;;23.41;47.70
14882;BME280;7533;51.278;12.588;2024-01-15T12:28:54;98105.22;;;23.41;47.61
14882;BME280;7533;51.278;12.588;2024-01-15T12:34:01;98108.75;;;23.42;47.70
14882;BME280;7533;51.278;12.588;2024-01-15T12:39:05;98098.81;;;23.42;47.72
14882;BME280;7533;51.278;12.588;2024-01-15T12:44:10;98103.00;;;23.45;47.79
14882;BME280;7533;51.278;12.588;2024-01-15T12:49:14;98097.59;;;23.45;47.69
14882;BME280;7533;51.278;12.588;2024-01-15T12:54:17;98103.84;;;23.45;47.76
14882;BME280;7533;51.278;12.588;2024-01-15T12:59:20;98108.91;;;23.48;47.80
14882;BME280;7533;51.278;12.588;2024-01-15T13:04:25;98109.09;;;23.47;47.61
14882;BME280;7533;51.278;12.588;2024-01-15T13:09:28;98104.16;;;23.50;47.72
14882;BME280;7533;51.278;12.588;2024-01-15T13:14:31;98093.72;;;23.47;47.50
14882;BME280;7533;51.278;12.588;2024-01-15T13:19:35;98141.88;;;22.44;40.87
14882;BME280;7533;51.278;12.588;2024-01-15T13:24:38;98135.34;;;21.71;38.48
14882;BME280;7533;51.278;12.588;2024-01-15T13:29:41;98147.25;;;21.16;36.55
14882;BME280;7533;51.278;12.588;2024-01-15T13:34:48;98131.22;;;21.84;39.32
14882;BME280;7533;51.278;12.588;2024-01-15T13:39:52;98135.78;;;22.26;40.03
14882;BME280;7533;51.278;12.588;2024-01-15T13:44:56;98141.88;;;22.44;40.83
14882;BME280;7533;51.278;12.588;2024-01-15T13:50:00;98140.72;;;22.55;41.58
14882;BME280;7533;51.278;12.588;2024-01-15T13:55:03;98141.44;;;22.65;42.51
14882;BME280;7533;51.278;12.588;2024-01-15T14:00:08;98139.94;;;22.71;43.38
14882;BME280;7533;51.278;12.588;2024-01-15T14:05:15;98147.00;;;22.72;43.97
14882;BME280;7533;51.278;12.588;2024-01-15T14:10:18;98146.50;;;22.77;44.41
14882;BME280;7533;51.278;12.588;2024-01-15T14:15:21;98149.72;;;22.80;45.05
14882;BME280;7533;51.278;12.588;2024-01-15T14:20:26;98160.16;;;22.83;45.40
14882;BME280;7533;51.278;12.588;2024-01-15T14:25:29;98156.31;;;22.86;45.84
14882;BME280;7533;51.278;12.588;2024-01-15T14:30:32;98159.38;;;22.91;46.14
14882;BME280;7533;51.278;12.588;2024-01-15T14:35:37;98158.19;;;22.93;46.37
14882;BME280;7533;51.278;12.588;2024-01-15T14:40:40;98161.72;;;22.94;46.58
14882;BME280;7533;51.278;12.588;2024-01-15T14:45:44;98164.09;;;22.97;46.85
14882;BME280;7533;51.278;12.588;2024-01-15T14:50:49;98174.72;;;22.99;47.04
14882;BME280;7533;51.278;12.588;2024-01-15T14:55:52;98184.66;;;22.98;47.42
14882;BME280;7533;51.278;12.588;2024-01-15T15:00:55;98190.59;;;23.02;47.48
14882;BME280;7533;51.278;12.588;2024-01-15T15:06:00;98193.94;;;23.04;47.58
14882;BME280;7533;51.278;12.588;2024-01-15T15:11:04;98208.94;;;23.06;47.60
14882;BME280;7533;51.278;12.588;2024-01-15T15:16:07;98218.06;;;23.05;47.95
14882;BME280;7533;51.278;12.588;2024-01-15T15:21:11;98208.78;;;23.08;48.03
14882;BME280;7533;51.278;12.588;2024-01-15T15:26:15;98208.31;;;23.12;47.97
14882;BME280;7533;51.278;12.588;2024-01-15T15:31:18;98218.91;;;23.14;48.06
14882;BME280;7533;51.278;12.588;2024-01-15T15:36:22;98235.09;;;23.14;48.27
14882;BME280;7533;51.278;12.588;2024-01-15T15:41:25;98235.78;;;23.16;48.28
14882;BME280;7533;51.278;12.588;2024-01-15T15:46:29;98244.88;;;23.15;48.36
14882;BME280;7533;51.278;12.588;2024-01-15T15:51:34;98245.56;;;23.17;48.42
14882;BME280;7533;51.278;12.588;2024-01-15T15:56:38;98250.28;;;23.15;48.72
14882;BME280;7533;51.278;12.588;2024-01-15T16:01:41;98257.19;;;23.17;48.68
14882;BME280;7533;51.278;12.588;2024-01-15T16:06:45;98241.88;;;23.18;48.85
14882;BME280;7533;51.278;12.588;2024-01-15T16:11:49;98254.50;;;23.17;48.84
14882;BME280;7533;51.278;12.588;2024-01-15T16:16:52;98247.09;;;23.19;48.90
14882;BME280;7533;51.278;12.588;2024-01-15T16:22:20;98248.94;;;23.19;49.19
14882;BME280;7533;51.278;12.588;2024-01-15T16:27:43;98254.84;;;23.22;49.20
14882;BME280;7533;51.278;12.588;2024-01-15T16:32:46;98263.44;;;23.26;49.06
14882;BME280;7533;51.278;12.588;2024-01-15T16:37:52;98275.94;;;23.27;49.07
14882;BME280;7533;51.278;12.588;2024-01-15T16:42:55;98267.00;;;23.27;49.00
14882;BME280;7533;51.278;12.588;2024-01-15T16:47:58;98263.28;;;23.28;49.13
14882;BME280;7533;51.278;12.588;2024-01-15T16:53:02;98267.66;;;23.29;49.05
14882;BME280;7533;51.278;12.588;2024-01-15T16:58:05;98272.91;;;23.30;49.16
14882;BME280;7533;51.278;12.588;2024-01-15T17:03:08;98261.94;;;23.32;49.16
14882;BME280;7533;51.278;12.588;2024-01-15T17:08:12;98262.97;;;23.31;49.28
14882;BME280;7533;51.278;12.588;2024-01-15T17:13:15;98266.50;;;23.31;49.74
14882;BME280;7533;51.278;12.588;2024-01-15T17:18:18;98270.34;;;23.29;50.01
14882;BME280;7533;51.278;12.588;2024-01-15T17:23:23;98271.72;;;23.25;50.43
14882;BME280;7533;51.278;12.588;2024-01-15T17:28:26;98277.97;;;23.25;50.79
14882;BME280;7533;51.278;12.588;2024-01-15T17:33:29;98282.03;;;23.29;50.65
14882;BME280;7533;51.278;12.588;2024-01-15T17:38:33;98281.19;;;23.37;50.52
14882;BME280;7533;51.278;12.588;2024-01-15T17:43:36;98287.75;;;23.42;50.38
14882;BME280;7533;51.278;12.588;2024-01-15T17:48:39;98284.56;;;23.47;50.07
14882;BME280;7533;51.278;12.588;2024-01-15T17:53:44;98275.78;;;23.53;49.83
14882;BME280;7533;51.278;12.588;2024-01-15T17:58:48;98286.75;;;23.60;49.62
14882;BME280;7533;51.278;12.588;2024-01-15T18:03:51;98291.00;;;23.62;49.26
14882;BME280;7533;51.278;12.588;2024-01-15T18:08:56;98305.69;;;23.68;49.03
14882;BME280;7533;51.278;12.588;2024-01-15T18:13:59;98305.34;;;23.71;48.72
14882;BME280;7533;51.278;12.588;2024-01-15T18:19:03;98301.97;;;23.77;48.68
14882;BME280;7533;51.278;12.588;2024-01-15T18:24:08;98301.47;;;23.82;48.56
14882;BME280;7533;51.278;12.588;2024-01-15T18:29:11;98294.88;;;23.84;48.47
14882;BME280;7533;51.278;12.588;2024-01-15T18:34:14;98304.50;;;23.87;48.46
14882;BME280;7533;51.278;12.588;2024-01-15T18:39:18;98293.53;;;23.88;48.25
14882;BME280;7533;51.278;12.588;2024-01-15T18:44:21;98304.16;;;23.90;48.08
14882;BME280;7533;51.278;12.588;2024-01-15T18:49:24;98296.56;;;23.93;47.91
14882;BME280;7533;51.278;12.588;2024-01-15T18:54:29;98307.19;;;23.95;47.58
14882;BME280;7533;51.278;12.588;2024-01-15T18:59:32;98324.75;;;23.99;47.20
14882;BME280;7533;51.278;12.588;2024-01-15T19:04:37;98315.47;;;24.01;46.92
14882;BME280;7533;51.278;12.588;2024-01-15T19:09:42;98340.47;;;24.04;46.65
14882;BME280;7533;51.278;12.588;2024-01-15T19:14:45;98340.13;;;24.07;46.04
14882;BME280;7533;51.278;12.588;2024-01-15T19:19:49;98353.31;;;24.10;45.87
14882;BME280;7533;51.278;12.588;2024-01-15T19:24:54;98349.25;;;24.14;45.92
14882;BME280;7533;51.278;12.588;2024-01-15T19:29:57;98352.63;;;24.16;45.45
14882;BME280;7533;51.278;12.588;2024-01-15T19:35:00;98361.25;;;24.19;45.41
14882;BME280;7533;51.278;12.588;2024-01-15T19:40:05;98363.25;;;24.25;45.23
14882;BME280;7533;51.278;12.588;2024-01-15T19:45:09;98362.75;;;24.30;45.29
14882;BME280;7533;51.278;12.588;2024-01-15T19:50:12;98378.63;;;24.33;45.27
14882;BME280;7533;51.278;12.588;2024-01-15T19:55:16;98390.13;;;24.35;45.16
14882;BME280;7533;51.278;12.588;2024-01-15T20:00:19;98401.28;;;24.40;45.07
14882;BME280;7533;51.278;12.588;2024-01-15T20:05:22;98405.16;;;24.46;45.04
14882;BME280;7533;51.278;12.588;2024-01-15T20:10:27;98422.72;;;24.50;44.93
14882;BME280;7533;51.278;12.588;2024-01-15T20:15:30;98430.53;;;24.53;44.86
14882;BME280;7533;51.278;12.588;2024-01-15T20:20:36;98447.06;;;24.58;45.04
14882;BME280;7533;51.278;12.588;2024-01-15T20:25:44;98473.09;;;24.59;45.14
14882;BME280;7533;51.278;12.588;2024-01-15T20:30:48;98468.69;;;24.66;45.14
14882;BME280;7533;51.278;12.588;2024-01-15T20:35:51;98488.28;;;24.68;45.25
14882;BME280;7533;51.278;12.588;2024-01-15T20:40:56;98484.25;;;24.72;45.14
14882;BME280;7533;51.278;12.588;2024-01-15T20:45:59;98484.75;;;24.76;44.97
14882;BME280;7533;51.278;12.588;2024-01-15T20:51:02;98501.47;;;24.79;44.94
14882;BME280;7533;51.278;12.588;2024-01-15T20:56:08;98500.31;;;24.82;45.29
14882;BME280;7533;51.278;12.588;2024-01-15T21:01:12;98514.66;;;24.83;44.95
14882;BME280;7533;51.278;12.588;2024-01-15T21:06:15;98518.88;;;24.85;45.12
14882;BME280;7533;51.278;12.588;2024-01-15T21:11:19;98526.00;;;24.86;45.27
14882;BME280;7533;51.278;12.588;2024-01-15T21:16:22;98526.13;;;25.01;45.21
14882;BME280;7533;51.278;12.588;2024-01-15T21:21:25;98522.41;;;25.26;44.81
14882;BME280;7533;51.278;12.588;2024-01-15T21:26:29;98517.34;;;25.15;45.07
14882;BME280;7533;51.278;12.588;2024-01-15T21:31:36;98523.28;;;25.11;45.18
14882;BME280;7533;51.278;12.588;2024-01-15T21:36:39;98527.34;;;25.06;44.98
14882;BME280;7533;51.278;12.588;2024-01-15T21:41:43;98537.31;;;25.06;44.73
14882;BME280;7533;51.278;12.588;2024-01-15T21:46:47;98552.72;;;25.05;44.79
14882;BME280;7533;51.278;12.588;2024-01-15T21:51:50;98567.09;;;25.06;44.91
14882;BME280;7533;51.278;12.588;2024-01-15T21:56:54;98568.78;;;25.07;44.77
14882;BME280;7533;51.278;12.588;2024-01-15T22:01:57;98581.28;;;25.08;44.82
14882;BME280;7533;51.278;12.588;2024-01-15T22:07:06;98590.28;;;25.09;44.86
14882;BME280;7533;51.278;12.588;2024-01-15T22:12:11;98588.56;;;25.08;44.87
14882;BME280;7533;51.278;12.588;2024-01-15T22:17:14;98591.78;;;25.11;44.68
14882;BME280;7533;51.278;12.588;2024-01-15T22:22:18;98605.34;;;25.11;44.48
14882;BME280;7533;51.278;12.588;2024-01-15T22:27:22;98614.09;;;25.05;44.79
14882;BME280;7533;51.278;12.588;2024-01-15T22:32:25;98624.09;;;25.04;44.82
14882;BME280;7533;51.278;12.588;2024-01-15T22:37:33;98622.22;;;24.97;44.86
14882;BME280;7533;51.278;12.588;2024-01-15T22:42:37;98638.97;;;24.92;44.65
14882;BME280;7533;51.278;12.588;2024-01-15T22:47:40;98641.00;;;24.90;45.20
14882;BME280;7533;51.278;12.588;2024-01-15T22:52:43;98645.22;;;24.85;44.94
14882;BME280;7533;51.278;12.588;2024-01-15T22:57:47;98654.00;;;24.78;44.98
14882;BME280;7533;51.278;12.588;2024-01-15T23:02:50;98655.53;;;24.73;44.89
14882;BME280;7533;51.278;12.588;2024-01-15T23:07:58;98660.75;;;24.66;45.05
14882;BME280;7533;51.278;12.588;2024-01-15T23:13:03;98664.97;;;24.61;45.00
14882;BME280;7533;51.278;12.588;2024-01-15T23:18:06;98651.09;;;24.56;45.18
14882;BME280;7533;51.278;12.588;2024-01-15T23:23:09;98667.31;;;24.47;45.17
14882;BME280;7533;51.278;12.588;2024-01-15T23:28:14;98664.41;;;24.41;45.29
14882;BME280;7533;51.278;12.588;2024-01-15T23:33:16;98675.75;;;24.36;45.76
14882;BME280;7533;51.278;12.588;2024-01-15T23:38:19;98685.16;;;24.32;45.42
14882;BME280;7533;51.278;12.588;2024-01-15T23:43:24;98690.19;;;24.27;45.81
14882;BME280;7533;51.278;12.588;2024-01-15T23:48:27;98694.41;;;24.21;45.61
14882;BME280;7533;51.278;12.588;2024-01-15T23:53:30;98700.47;;;24.15;45.88
14882;BME280;7533;51.278;12.588;2024-01-15T23:58:35;98704.66;;;24.10;46.24
